createdAt,value
2023-03-22T00:01:31.088Z,9.50
2023-03-22T00:03:59.785Z,9.45
2023-03-22T00:06:28.241Z,9.52
2023-03-22T00:08:56.531Z,9.36
2023-03-22T00:11:26.518Z,9.52
2023-03-22T00:13:55.119Z,9.52
2023-03-22T00:16:23.592Z,9.48
2023-03-22T00:18:51.886Z,9.40
2023-03-22T00:21:20.222Z,9.46
2023-03-22T00:23:48.607Z,9.47
2023-03-22T00:26:16.756Z,9.45
2023-03-22T00:28:46.559Z,9.40
2023-03-22T00:31:15.862Z,9.31
2023-03-22T00:33:44.259Z,9.29
2023-03-22T00:36:13.366Z,9.41
2023-03-22T00:38:43.459Z,9.20
2023-03-22T00:41:15.990Z,9.31
2023-03-22T00:43:48.335Z,9.03
2023-03-22T00:46:17.897Z,9.12
2023-03-22T00:48:46.442Z,9.22
2023-03-22T00:51:15.878Z,9.01
2023-03-22T00:53:44.849Z,9.05
2023-03-22T00:56:15.810Z,8.95
2023-03-22T00:59:08.474Z,9.02
2023-03-22T01:01:36.731Z,9.03
2023-03-22T01:04:05.539Z,8.79
2023-03-22T01:06:33.930Z,8.92
2023-03-22T01:09:02.582Z,8.67
2023-03-22T01:11:30.787Z,8.73
2023-03-22T01:13:59.600Z,8.88
2023-03-22T01:16:29.104Z,8.91
2023-03-22T01:18:57.380Z,8.95
2023-03-22T01:21:25.840Z,8.94
2023-03-22T01:23:54.363Z,9.00
2023-03-22T01:26:22.546Z,9.06
2023-03-22T01:28:51.249Z,9.06
2023-03-22T01:31:19.425Z,9.00
2023-03-22T01:33:49.275Z,9.13
2023-03-22T01:36:17.407Z,9.12
2023-03-22T01:38:45.900Z,9.05
2023-03-22T01:41:14.215Z,9.07
2023-03-22T01:43:43.852Z,8.98
2023-03-22T01:46:12.977Z,8.98
2023-03-22T01:48:46.105Z,9.13
2023-03-22T01:51:19.798Z,9.26
2023-03-22T01:54:22.843Z,9.19
2023-03-22T01:56:51.786Z,9.10
2023-03-22T01:59:30.607Z,9.20
2023-03-22T02:02:22.119Z,9.32
2023-03-22T02:04:58.898Z,9.16
2023-03-22T02:07:31.811Z,9.18
2023-03-22T02:10:01.701Z,9.09
2023-03-22T02:12:52.556Z,9.09
2023-03-22T02:15:42.919Z,9.10
2023-03-22T02:18:51.938Z,9.16
2023-03-22T02:21:39.780Z,9.10
2023-03-22T02:24:46.071Z,9.17
2023-03-22T02:27:26.713Z,9.26
2023-03-22T02:30:07.072Z,9.08
2023-03-22T02:33:07.327Z,9.15
2023-03-22T02:35:50.451Z,9.21
2023-03-22T02:38:58.977Z,9.19
2023-03-22T02:41:37.346Z,9.26
2023-03-22T02:44:11.137Z,9.23
2023-03-22T02:46:45.976Z,9.21
2023-03-22T02:49:21.039Z,9.19
2023-03-22T02:51:54.674Z,9.10
2023-03-22T02:54:29.996Z,9.04
2023-03-22T02:57:03.589Z,9.13
2023-03-22T02:59:34.728Z,9.02
2023-03-22T03:02:04.645Z,9.06
2023-03-22T03:04:37.438Z,8.96
2023-03-22T03:07:10.323Z,8.87
2023-03-22T03:09:42.294Z,8.82
2023-03-22T03:12:15.996Z,8.83
2023-03-22T03:14:44.260Z,8.83
2023-03-22T03:17:24.254Z,8.78
2023-03-22T03:20:07.955Z,8.85
2023-03-22T03:22:47.564Z,8.82
2023-03-22T03:25:26.576Z,8.70
2023-03-22T03:28:03.529Z,8.83
2023-03-22T03:30:38.982Z,8.75
2023-03-22T03:33:10.603Z,8.71
2023-03-22T03:35:45.388Z,8.74
2023-03-22T03:38:17.478Z,8.79
2023-03-22T03:40:51.545Z,8.80
2023-03-22T03:43:20.671Z,8.63
2023-03-22T03:45:49.006Z,8.77
2023-03-22T03:48:22.469Z,8.76
2023-03-22T03:50:53.948Z,8.65
2023-03-22T03:53:22.381Z,8.50
2023-03-22T03:55:51.875Z,8.42
2023-03-22T03:58:20.161Z,8.61
2023-03-22T04:00:50.217Z,8.42
2023-03-22T04:03:37.791Z,8.63
2023-03-22T04:06:25.888Z,8.62
2023-03-22T04:08:58.601Z,8.47
2023-03-22T04:11:33.700Z,8.27
2023-03-22T04:14:04.260Z,8.33
2023-03-22T04:16:32.637Z,8.20
2023-03-22T04:19:00.880Z,8.43
2023-03-22T04:21:29.202Z,8.13
2023-03-22T04:23:59.633Z,8.18
2023-03-22T04:26:30.871Z,8.16
2023-03-22T04:29:24.693Z,8.19
2023-03-22T04:31:58.716Z,8.13
2023-03-22T04:34:36.817Z,8.07
2023-03-22T04:37:08.089Z,7.96
2023-03-22T04:39:39.394Z,7.96
2023-03-22T04:42:34.087Z,8.04
2023-03-22T04:45:15.500Z,8.00
2023-03-22T04:47:47.462Z,7.99
2023-03-22T04:50:15.763Z,8.01
2023-03-22T04:52:58.456Z,7.87
2023-03-22T04:55:27.685Z,7.93
2023-03-22T04:57:55.980Z,7.92
2023-03-22T05:00:30.062Z,7.89
2023-03-22T05:02:59.362Z,7.99
2023-03-22T05:05:34.372Z,7.97
2023-03-22T05:08:04.328Z,8.08
2023-03-22T05:10:32.493Z,7.81
2023-03-22T05:13:00.636Z,8.03
2023-03-22T05:15:34.598Z,8.03
2023-03-22T05:18:05.149Z,8.08
2023-03-22T05:20:33.521Z,8.04
2023-03-22T05:23:11.603Z,7.94
2023-03-22T05:25:45.065Z,8.05
2023-03-22T05:28:15.415Z,8.14
2023-03-22T05:30:49.389Z,8.27
2023-03-22T05:33:28.056Z,8.12
2023-03-22T05:35:58.157Z,8.35
2023-03-22T05:38:28.675Z,8.44
2023-03-22T05:40:59.945Z,8.27
2023-03-22T05:43:29.485Z,8.34
2023-03-22T05:45:58.957Z,8.40
2023-03-22T05:48:40.573Z,8.38
2023-03-22T05:51:13.450Z,8.44
2023-03-22T05:53:41.757Z,8.48
2023-03-22T05:56:21.833Z,8.36
2023-03-22T05:58:50.861Z,8.48
2023-03-22T06:01:23.161Z,8.41
2023-03-22T06:04:10.749Z,8.46
2023-03-22T06:06:51.429Z,8.57
2023-03-22T06:09:50.188Z,8.55
2023-03-22T06:12:24.814Z,8.70
2023-03-22T06:15:14.092Z,8.68
2023-03-22T06:18:01.866Z,8.85
2023-03-22T06:20:35.253Z,8.65
2023-03-22T06:23:09.620Z,8.63
2023-03-22T06:25:39.909Z,8.86
2023-03-22T06:28:08.837Z,8.65
2023-03-22T06:30:38.590Z,8.75
2023-03-22T06:33:46.524Z,8.82
2023-03-22T06:36:24.643Z,8.75
2023-03-22T06:39:05.248Z,8.83
2023-03-22T06:41:33.926Z,8.93
2023-03-22T06:44:02.682Z,9.01
2023-03-22T06:46:56.666Z,8.87
2023-03-22T06:50:01.452Z,8.93
2023-03-22T06:52:49.620Z,8.87
2023-03-22T06:55:17.881Z,8.99
2023-03-22T06:57:46.047Z,8.99
2023-03-22T07:00:15.982Z,9.13
2023-03-22T07:02:44.154Z,9.02
2023-03-22T07:05:28.901Z,9.16
2023-03-22T07:07:57.091Z,9.26
2023-03-22T07:10:27.094Z,9.23
2023-03-22T07:12:55.365Z,9.35
2023-03-22T07:15:24.784Z,9.37
2023-03-22T07:18:00.698Z,9.35
2023-03-22T07:20:30.325Z,9.19
2023-03-22T07:22:58.603Z,9.26
2023-03-22T07:25:29.855Z,9.35
2023-03-22T07:28:11.418Z,9.45
2023-03-22T07:30:40.693Z,9.29
2023-03-22T07:33:11.498Z,9.49
2023-03-22T07:35:42.208Z,9.55
2023-03-22T07:38:11.466Z,9.63
2023-03-22T07:40:39.823Z,9.66
2023-03-22T07:43:12.019Z,9.51
2023-03-22T07:45:58.044Z,9.66
2023-03-22T07:48:49.074Z,9.58
2023-03-22T07:51:56.533Z,9.73
2023-03-22T07:54:33.467Z,9.70
2023-03-22T07:57:03.392Z,9.70
2023-03-22T07:59:33.740Z,9.73
2023-03-22T08:02:02.688Z,9.72
2023-03-22T08:04:36.514Z,9.81
2023-03-22T08:07:13.811Z,9.79
2023-03-22T08:09:42.877Z,9.97
2023-03-22T08:12:12.132Z,10.02
2023-03-22T08:14:41.286Z,10.28
2023-03-22T08:17:16.437Z,10.31
2023-03-22T08:19:45.306Z,10.44
2023-03-22T08:22:18.867Z,10.73
2023-03-22T08:25:14.202Z,10.41
2023-03-22T08:27:42.444Z,10.51
2023-03-22T08:30:11.837Z,10.54
2023-03-22T08:32:39.974Z,10.61
2023-03-22T08:35:09.396Z,10.73
2023-03-22T08:37:40.044Z,11.00
2023-03-22T08:40:10.338Z,10.87
2023-03-22T08:42:42.950Z,10.90
2023-03-22T08:45:11.551Z,10.96
2023-03-22T08:47:49.888Z,10.91
2023-03-22T08:50:24.324Z,11.03
2023-03-22T08:53:02.711Z,11.32
2023-03-22T08:55:35.384Z,11.46
2023-03-22T08:58:13.171Z,11.72
2023-03-22T09:00:55.799Z,12.07
2023-03-22T09:03:41.467Z,12.07
2023-03-22T09:06:11.061Z,11.91
2023-03-22T09:08:42.686Z,11.80
2023-03-22T09:11:16.647Z,12.27
2023-03-22T09:13:46.924Z,12.70
2023-03-22T09:16:15.196Z,12.74
2023-03-22T09:18:45.830Z,13.00
2023-03-22T09:21:17.912Z,12.59
2023-03-22T09:23:53.412Z,12.66
2023-03-22T09:26:27.185Z,12.57
2023-03-22T09:28:56.256Z,12.67
2023-03-22T09:31:24.942Z,12.66
2023-03-22T09:34:04.521Z,12.91
2023-03-22T09:36:34.303Z,12.94
2023-03-22T09:39:07.239Z,12.73
2023-03-22T09:41:39.772Z,12.44
2023-03-22T09:44:13.443Z,12.56
2023-03-22T09:46:45.662Z,12.86
2023-03-22T09:49:18.906Z,12.82
2023-03-22T09:51:49.666Z,12.82
2023-03-22T09:54:21.731Z,12.87
2023-03-22T09:56:54.012Z,12.86
2023-03-22T09:59:27.124Z,13.07
2023-03-22T10:02:00.055Z,13.02
2023-03-22T10:04:47.881Z,12.85
2023-03-22T10:07:27.354Z,13.22
2023-03-22T10:10:07.985Z,13.43
2023-03-22T10:12:43.736Z,13.20
2023-03-22T10:15:15.053Z,13.13
2023-03-22T10:17:47.226Z,13.25
2023-03-22T10:20:29.006Z,13.46
2023-03-22T10:23:01.469Z,13.24
2023-03-22T10:25:36.473Z,13.57
2023-03-22T10:28:15.405Z,13.57
2023-03-22T10:30:45.236Z,13.53
2023-03-22T10:33:17.822Z,13.72
2023-03-22T10:35:46.827Z,13.59
2023-03-22T10:38:20.654Z,13.54
2023-03-22T10:40:51.207Z,13.67
2023-03-22T10:43:23.778Z,13.88
2023-03-22T10:45:54.174Z,14.08
2023-03-22T10:48:28.693Z,14.05
2023-03-22T10:50:59.452Z,14.14
2023-03-22T10:53:35.934Z,14.21
2023-03-22T10:56:06.910Z,14.34
2023-03-22T10:58:36.258Z,14.03
2023-03-22T11:01:08.293Z,14.32
2023-03-22T11:03:41.577Z,14.46
2023-03-22T11:06:13.273Z,14.46
2023-03-22T11:08:45.074Z,14.10
2023-03-22T11:11:21.059Z,14.34
2023-03-22T11:14:01.030Z,14.41
2023-03-22T11:16:30.520Z,14.54
2023-03-22T11:19:02.060Z,14.31
2023-03-22T11:21:32.744Z,14.86
2023-03-22T11:24:04.767Z,14.75
2023-03-22T11:26:38.996Z,14.56
2023-03-22T11:29:14.972Z,14.76
2023-03-22T11:31:58.154Z,14.99
2023-03-22T11:34:29.396Z,15.18
2023-03-22T11:37:01.227Z,15.34
2023-03-22T11:39:30.621Z,15.60
2023-03-22T11:42:03.793Z,15.87
2023-03-22T11:44:35.532Z,15.98
2023-03-22T11:47:05.327Z,15.87
2023-03-22T11:49:41.143Z,15.70
2023-03-22T11:52:12.640Z,15.35
2023-03-22T11:54:42.748Z,15.44
2023-03-22T11:57:16.821Z,15.47
2023-03-22T11:59:53.806Z,15.28
2023-03-22T12:02:27.871Z,15.39
2023-03-22T12:05:01.797Z,15.43
2023-03-22T12:07:32.598Z,15.05
2023-03-22T12:10:06.426Z,14.92
2023-03-22T12:12:41.213Z,14.87
2023-03-22T12:15:16.422Z,15.13
2023-03-22T12:17:50.152Z,15.36
2023-03-22T12:20:26.393Z,15.32
2023-03-22T12:22:56.216Z,15.72
2023-03-22T12:25:28.362Z,15.84
2023-03-22T12:28:03.594Z,15.71
2023-03-22T12:30:34.911Z,15.87
2023-03-22T12:33:07.644Z,16.05
2023-03-22T12:35:39.984Z,15.73
2023-03-22T12:38:19.017Z,15.73
2023-03-22T12:40:48.694Z,15.55
2023-03-22T12:43:28.854Z,15.43
2023-03-22T12:46:01.011Z,15.44
2023-03-22T12:48:37.333Z,15.60
2023-03-22T12:51:07.717Z,15.52
2023-03-22T12:53:42.908Z,15.44
2023-03-22T12:56:14.236Z,15.60
2023-03-22T12:58:48.012Z,16.10
2023-03-22T13:01:30.068Z,16.18
2023-03-22T13:03:59.462Z,16.11
2023-03-22T13:06:34.131Z,15.96
2023-03-22T13:09:15.705Z,16.21
2023-03-22T13:11:45.890Z,16.27
2023-03-22T13:14:57.713Z,16.45
2023-03-22T13:17:41.862Z,16.58
2023-03-22T13:20:27.801Z,16.63
2023-03-22T13:23:02.184Z,16.36
2023-03-22T13:25:34.881Z,16.27
2023-03-22T13:28:05.175Z,16.27
2023-03-22T13:30:36.884Z,16.65
2023-03-22T13:33:21.248Z,16.85
2023-03-22T13:35:53.933Z,16.61
2023-03-22T13:38:24.746Z,16.54
2023-03-22T13:41:00.667Z,16.42
2023-03-22T13:43:32.789Z,16.13
2023-03-22T13:46:11.295Z,16.22
2023-03-22T13:48:59.595Z,16.45
2023-03-22T13:51:32.019Z,16.43
2023-03-22T13:54:05.507Z,16.55
2023-03-22T13:56:47.899Z,16.28
2023-03-22T13:59:21.328Z,16.32
2023-03-22T14:01:52.477Z,16.45
2023-03-22T14:04:26.644Z,16.74
2023-03-22T14:06:59.911Z,16.44
2023-03-22T14:09:32.345Z,16.11
2023-03-22T14:12:06.559Z,16.31
2023-03-22T14:14:40.881Z,16.35
2023-03-22T14:17:18.820Z,16.56
2023-03-22T14:19:49.782Z,16.50
